createdAt,value
2023-03-29T00:00:30.181Z,5.31
2023-03-29T00:01:35.737Z,5.20
2023-03-29T00:02:30.463Z,5.18
2023-03-29T00:03:30.192Z,5.17
2023-03-29T00:04:30.181Z,5.11
2023-03-29T00:05:30.113Z,5.08
2023-03-29T00:06:30.107Z,5.02
2023-03-29T00:07:30.105Z,5.00
2023-03-29T00:08:30.118Z,4.97
2023-03-29T00:09:30.070Z,4.97
2023-03-29T00:10:30.056Z,4.97
2023-03-29T00:11:30.048Z,4.96
2023-03-29T00:12:30.039Z,4.95
2023-03-29T00:13:30.020Z,4.95
2023-03-29T00:14:30.009Z,4.96
2023-03-29T00:15:30.043Z,4.90
2023-03-29T00:16:30.012Z,4.87
2023-03-29T00:17:29.996Z,4.85
2023-03-29T00:18:29.967Z,4.82
2023-03-29T00:19:29.960Z,4.84
2023-03-29T00:20:29.959Z,4.79
2023-03-29T00:21:29.930Z,4.75
2023-03-29T00:22:29.919Z,4.74
2023-03-29T00:23:29.917Z,4.77
2023-03-29T00:24:29.899Z,4.81
2023-03-29T00:25:29.889Z,4.79
2023-03-29T00:26:29.874Z,4.78
2023-03-29T00:27:29.874Z,4.71
2023-03-29T00:28:29.852Z,4.71
2023-03-29T00:29:29.849Z,4.71
2023-03-29T00:30:29.844Z,4.69
2023-03-29T00:31:29.892Z,4.67
2023-03-29T00:32:29.824Z,4.64
2023-03-29T00:33:29.800Z,4.69
2023-03-29T00:34:29.785Z,4.71
2023-03-29T00:35:29.784Z,4.72
2023-03-29T00:36:29.760Z,4.72
2023-03-29T00:37:29.749Z,4.72
2023-03-29T00:38:29.745Z,4.67
2023-03-29T00:39:29.729Z,4.63
2023-03-29T00:40:29.720Z,4.63
2023-03-29T00:41:29.706Z,4.59
2023-03-29T00:42:29.703Z,4.57
2023-03-29T00:43:29.681Z,4.56
2023-03-29T00:44:29.675Z,4.57
2023-03-29T00:45:29.662Z,4.53
2023-03-29T00:46:29.694Z,4.51
2023-03-29T00:47:29.715Z,4.46
2023-03-29T00:48:29.633Z,4.45
2023-03-29T00:49:29.625Z,4.48
2023-03-29T00:50:29.708Z,4.54
2023-03-29T00:51:29.590Z,4.60
2023-03-29T00:52:29.580Z,4.59
2023-03-29T00:53:29.572Z,4.59
2023-03-29T00:54:29.561Z,4.64
2023-03-29T00:55:29.547Z,4.64
2023-03-29T00:56:29.536Z,4.63
2023-03-29T00:57:29.555Z,4.64
2023-03-29T00:58:29.510Z,4.66
2023-03-29T00:59:29.505Z,4.67
2023-03-29T01:00:29.495Z,4.69
2023-03-29T01:01:29.519Z,4.63
2023-03-29T01:02:29.616Z,4.57
2023-03-29T01:03:29.569Z,4.59
2023-03-29T01:04:29.602Z,4.54
2023-03-29T01:05:29.455Z,4.49
2023-03-29T01:06:29.432Z,4.49
2023-03-29T01:07:29.412Z,4.48
2023-03-29T01:08:29.400Z,4.46
2023-03-29T01:09:29.388Z,4.46
2023-03-29T01:10:29.378Z,4.45
2023-03-29T01:11:29.372Z,4.43
2023-03-29T01:12:29.356Z,4.42
2023-03-29T01:13:29.342Z,4.41
2023-03-29T01:14:29.333Z,4.41
2023-03-29T01:15:29.349Z,4.45
2023-03-29T01:16:29.338Z,4.45
2023-03-29T01:17:29.338Z,4.45
2023-03-29T01:18:29.288Z,4.49
2023-03-29T01:19:29.300Z,4.43
2023-03-29T01:20:29.271Z,4.43
2023-03-29T01:21:29.302Z,4.42
2023-03-29T01:22:29.243Z,4.41
2023-03-29T01:23:29.229Z,4.42
2023-03-29T01:24:29.221Z,4.45
2023-03-29T01:25:29.211Z,4.45
2023-03-29T01:26:29.198Z,4.45
2023-03-29T01:27:29.186Z,4.48
2023-03-29T01:28:29.182Z,4.51
2023-03-29T01:29:29.165Z,4.54
2023-03-29T01:30:29.152Z,4.57
2023-03-29T01:31:29.161Z,4.60
2023-03-29T01:32:29.138Z,4.63
2023-03-29T01:33:29.118Z,4.63
2023-03-29T01:34:29.107Z,4.57
2023-03-29T01:35:29.117Z,4.57
2023-03-29T01:36:29.089Z,4.61
2023-03-29T01:37:29.080Z,4.61
2023-03-29T01:38:29.064Z,4.64
2023-03-29T01:39:29.057Z,4.64
2023-03-29T01:40:29.038Z,4.66
2023-03-29T01:41:29.035Z,4.67
2023-03-29T01:42:29.014Z,4.71
2023-03-29T01:43:29.003Z,4.63
2023-03-29T01:44:28.993Z,4.63
2023-03-29T01:45:28.988Z,4.63
2023-03-29T01:46:29.048Z,4.64
2023-03-29T01:47:28.994Z,4.61
2023-03-29T01:48:28.944Z,4.66
2023-03-29T01:49:28.934Z,4.66
2023-03-29T01:50:28.931Z,4.63
2023-03-29T01:51:28.937Z,4.56
2023-03-29T01:52:28.901Z,4.54
2023-03-29T01:53:28.899Z,4.53
2023-03-29T01:54:28.878Z,4.53
2023-03-29T01:55:28.871Z,4.54
2023-03-29T01:56:28.856Z,4.53
2023-03-29T01:57:28.839Z,4.53
2023-03-29T01:58:28.832Z,4.59
2023-03-29T01:59:28.830Z,4.56
2023-03-29T02:00:28.811Z,4.53
2023-03-29T02:01:28.848Z,4.53
2023-03-29T02:02:28.851Z,4.53
2023-03-29T02:03:28.837Z,4.53
2023-03-29T02:04:28.761Z,4.53
2023-03-29T02:05:28.761Z,4.51
2023-03-29T02:06:28.736Z,4.49
2023-03-29T02:07:28.758Z,4.49
2023-03-29T02:08:28.729Z,4.51
2023-03-29T02:09:28.728Z,4.53
2023-03-29T02:10:28.701Z,4.49
2023-03-29T02:11:28.683Z,4.46
2023-03-29T02:12:28.672Z,4.46
2023-03-29T02:13:28.656Z,4.46
2023-03-29T02:14:28.645Z,4.46
2023-03-29T02:15:28.668Z,4.43
2023-03-29T02:16:28.624Z,4.43
2023-03-29T02:17:28.636Z,4.43
2023-03-29T02:18:28.602Z,4.42
2023-03-29T02:19:28.590Z,4.45
2023-03-29T02:20:28.588Z,4.45
2023-03-29T02:21:28.567Z,4.48
2023-03-29T02:22:28.570Z,4.49
2023-03-29T02:23:28.572Z,4.51
2023-03-29T02:24:28.543Z,4.51
2023-03-29T02:25:28.524Z,4.46
2023-03-29T02:26:28.509Z,4.42
2023-03-29T02:27:28.503Z,4.38
2023-03-29T02:28:28.486Z,4.39
2023-03-29T02:29:28.488Z,4.38
2023-03-29T02:30:28.464Z,4.36
2023-03-29T02:31:28.466Z,4.31
2023-03-29T02:32:28.483Z,4.24
2023-03-29T02:33:28.428Z,4.23
2023-03-29T02:34:28.422Z,4.21
2023-03-29T02:35:28.413Z,4.23
2023-03-29T02:36:28.393Z,4.21
2023-03-29T02:37:28.385Z,4.21
2023-03-29T02:38:28.374Z,4.20
2023-03-29T02:39:28.394Z,4.20
2023-03-29T02:40:28.365Z,4.18
2023-03-29T02:41:28.339Z,4.17
2023-03-29T02:42:28.325Z,4.18
2023-03-29T02:43:28.319Z,4.16
2023-03-29T02:44:28.303Z,4.13
2023-03-29T02:45:28.293Z,4.17
2023-03-29T02:46:28.349Z,4.13
2023-03-29T02:47:28.302Z,4.16
2023-03-29T02:48:28.261Z,4.13
2023-03-29T02:49:28.245Z,4.17
2023-03-29T02:50:28.236Z,4.17
2023-03-29T02:51:28.230Z,4.13
2023-03-29T02:52:28.229Z,4.10
2023-03-29T02:53:28.202Z,4.10
2023-03-29T02:54:28.191Z,4.12
2023-03-29T02:55:28.207Z,4.12
2023-03-29T02:56:28.166Z,4.18
2023-03-29T02:57:28.167Z,4.21
2023-03-29T02:58:28.151Z,4.27
2023-03-29T02:59:28.134Z,4.28
2023-03-29T03:00:28.129Z,4.28
2023-03-29T03:01:28.144Z,4.30
2023-03-29T03:02:28.237Z,4.30
2023-03-29T03:03:28.180Z,4.34
2023-03-29T03:04:28.108Z,4.31
2023-03-29T03:05:28.068Z,4.23
2023-03-29T03:06:28.057Z,4.18
2023-03-29T03:07:28.046Z,4.13
2023-03-29T03:08:28.032Z,4.13
2023-03-29T03:09:28.028Z,4.17
2023-03-29T03:10:28.011Z,4.20
2023-03-29T03:11:28.032Z,4.17
2023-03-29T03:12:28.006Z,4.13
2023-03-29T03:13:27.992Z,4.16
2023-03-29T03:14:27.973Z,4.16
2023-03-29T03:15:27.958Z,4.16
2023-03-29T03:16:28.111Z,4.16
2023-03-29T03:17:27.955Z,4.10
2023-03-29T03:18:27.926Z,4.08
2023-03-29T03:19:27.910Z,4.10
2023-03-29T03:20:27.897Z,4.10
2023-03-29T03:21:27.892Z,4.12
2023-03-29T03:22:27.877Z,4.17
2023-03-29T03:23:27.861Z,4.16
2023-03-29T03:24:27.854Z,4.12
2023-03-29T03:25:27.855Z,4.12
2023-03-29T03:26:27.831Z,4.13
2023-03-29T03:27:27.839Z,4.12
2023-03-29T03:28:27.801Z,4.10
2023-03-29T03:29:27.788Z,4.02
2023-03-29T03:30:27.784Z,3.99
2023-03-29T03:31:27.793Z,3.95
2023-03-29T03:32:27.779Z,3.90
2023-03-29T03:33:27.747Z,3.89
2023-03-29T03:34:27.738Z,3.87
2023-03-29T03:35:27.769Z,3.87
2023-03-29T03:36:27.710Z,3.84
2023-03-29T03:37:27.712Z,3.84
2023-03-29T03:38:27.689Z,3.86
2023-03-29T03:39:27.674Z,3.87
2023-03-29T03:40:28.388Z,3.91
2023-03-29T03:41:27.653Z,3.99
2023-03-29T03:42:27.637Z,4.05
2023-03-29T03:43:27.660Z,4.12
2023-03-29T03:44:27.625Z,4.17
2023-03-29T03:45:27.638Z,4.21
2023-03-29T03:46:29.468Z,4.21
2023-03-29T03:47:27.634Z,4.21
2023-03-29T03:48:27.571Z,4.18
2023-03-29T03:49:27.567Z,4.13
2023-03-29T03:50:27.560Z,4.16
2023-03-29T03:51:27.541Z,4.13
2023-03-29T03:52:27.525Z,4.04
2023-03-29T03:53:27.512Z,3.98
2023-03-29T03:54:27.501Z,3.97
2023-03-29T03:55:27.493Z,3.98
2023-03-29T03:56:27.480Z,3.93
2023-03-29T03:57:27.474Z,3.91
2023-03-29T03:58:27.466Z,3.93
2023-03-29T03:59:27.474Z,3.91
2023-03-29T04:00:27.447Z,3.90
2023-03-29T04:01:27.455Z,3.86
2023-03-29T04:02:27.475Z,3.84
2023-03-29T04:03:27.518Z,3.79
2023-03-29T04:04:27.447Z,3.73
2023-03-29T04:05:27.376Z,3.77
2023-03-29T04:06:27.366Z,3.79
2023-03-29T04:07:27.365Z,3.81
2023-03-29T04:08:27.347Z,3.87
2023-03-29T04:09:27.337Z,3.91
2023-03-29T04:10:27.330Z,3.91
2023-03-29T04:11:27.311Z,3.93
2023-03-29T04:12:27.307Z,3.91
2023-03-29T04:13:27.316Z,3.93
2023-03-29T04:14:27.275Z,3.97
2023-03-29T04:15:27.310Z,4.01
2023-03-29T04:16:27.335Z,3.93
2023-03-29T04:17:27.278Z,3.91
2023-03-29T04:18:27.259Z,3.90
2023-03-29T04:19:27.219Z,3.89
2023-03-29T04:20:27.215Z,3.83
2023-03-29T04:21:27.196Z,3.80
2023-03-29T04:22:27.202Z,3.79
2023-03-29T04:23:27.176Z,3.79
2023-03-29T04:24:27.168Z,3.80
2023-03-29T04:25:27.153Z,3.84
2023-03-29T04:26:27.158Z,3.84
2023-03-29T04:27:27.131Z,3.84
2023-03-29T04:28:27.118Z,3.86
2023-03-29T04:29:29.108Z,3.91
2023-03-29T04:30:27.102Z,3.91
2023-03-29T04:31:29.255Z,3.90
2023-03-29T04:32:27.103Z,3.87
2023-03-29T04:33:27.060Z,3.81
2023-03-29T04:34:27.065Z,3.83
2023-03-29T04:35:27.052Z,3.84
2023-03-29T04:36:27.035Z,3.86
2023-03-29T04:37:29.033Z,3.79
2023-03-29T04:38:27.017Z,3.75
2023-03-29T04:39:27.005Z,3.72
2023-03-29T04:40:27.002Z,3.66
2023-03-29T04:41:26.977Z,3.65
2023-03-29T04:42:26.973Z,3.66
2023-03-29T04:43:26.957Z,3.71
2023-03-29T04:44:26.960Z,3.73
2023-03-29T04:45:26.974Z,3.73
2023-03-29T04:46:27.097Z,3.73
2023-03-29T04:47:26.982Z,3.72
2023-03-29T04:48:26.899Z,3.69
2023-03-29T04:49:26.891Z,3.77
2023-03-29T04:50:26.882Z,3.75
2023-03-29T04:51:26.865Z,3.75
2023-03-29T04:52:26.853Z,3.77
2023-03-29T04:53:26.845Z,3.79
2023-03-29T04:54:26.834Z,3.80
2023-03-29T04:55:26.821Z,3.75
2023-03-29T04:56:26.810Z,3.72
2023-03-29T04:57:26.850Z,3.73
2023-03-29T04:58:32.255Z,3.71
2023-03-29T04:59:26.786Z,3.71
2023-03-29T05:00:26.773Z,3.69
2023-03-29T05:01:26.758Z,3.69
2023-03-29T05:02:28.793Z,3.71
2023-03-29T05:03:26.760Z,3.73
2023-03-29T05:04:26.753Z,3.77
2023-03-29T05:05:28.711Z,3.81
2023-03-29T05:06:26.700Z,3.87
2023-03-29T05:07:26.688Z,3.90
2023-03-29T05:08:26.674Z,3.93
2023-03-29T05:09:26.668Z,3.95
2023-03-29T05:10:26.651Z,3.91
2023-03-29T05:11:26.648Z,3.86
2023-03-29T05:12:26.632Z,3.81
2023-03-29T05:13:26.617Z,3.81
2023-03-29T05:14:26.611Z,3.81
2023-03-29T05:15:26.595Z,3.80
2023-03-29T05:16:26.706Z,3.80
2023-03-29T05:17:26.604Z,3.77
2023-03-29T05:18:26.562Z,3.72
2023-03-29T05:19:26.580Z,3.72
2023-03-29T05:20:26.538Z,3.72
2023-03-29T05:21:26.525Z,3.72
2023-03-29T05:22:26.524Z,3.79
2023-03-29T05:23:26.505Z,3.84
2023-03-29T05:24:26.501Z,3.80
2023-03-29T05:25:26.483Z,3.73
2023-03-29T05:26:26.471Z,3.73
2023-03-29T05:27:26.468Z,3.77
2023-03-29T05:28:26.457Z,3.80
2023-03-29T05:29:26.439Z,3.81
2023-03-29T05:30:26.428Z,3.87
2023-03-29T05:31:26.502Z,3.90
2023-03-29T05:32:26.459Z,3.97
2023-03-29T05:33:26.400Z,4.01
2023-03-29T05:34:26.382Z,4.01
2023-03-29T05:35:26.443Z,4.02
2023-03-29T05:36:26.359Z,3.99
2023-03-29T05:37:26.345Z,4.01
2023-03-29T05:38:26.337Z,4.02
2023-03-29T05:39:26.338Z,4.08
2023-03-29T05:40:26.346Z,4.18
2023-03-29T05:41:26.315Z,4.26
2023-03-29T05:42:26.295Z,4.31
2023-03-29T05:43:26.284Z,4.39
2023-03-29T05:44:26.277Z,4.42
2023-03-29T05:45:26.302Z,4.35
2023-03-29T05:46:26.255Z,4.34
2023-03-29T05:47:26.333Z,4.24
2023-03-29T05:48:26.246Z,4.31
2023-03-29T05:49:26.214Z,4.31
2023-03-29T05:50:26.199Z,4.28
2023-03-29T05:51:26.222Z,4.24
2023-03-29T05:52:26.175Z,4.20
2023-03-29T05:53:26.172Z,4.24
2023-03-29T05:54:26.166Z,4.27
2023-03-29T05:55:26.147Z,4.34
2023-03-29T05:56:26.131Z,4.45
2023-03-29T05:57:26.166Z,4.49
2023-03-29T05:58:26.111Z,4.54
2023-03-29T05:59:26.097Z,4.59
2023-03-29T06:00:26.095Z,4.63
2023-03-29T06:01:26.091Z,4.57
2023-03-29T06:02:26.165Z,4.49
2023-03-29T06:03:26.222Z,4.48
2023-03-29T06:04:26.131Z,4.56
2023-03-29T06:05:26.028Z,4.61
2023-03-29T06:06:26.023Z,4.72
2023-03-29T06:07:26.040Z,4.72
2023-03-29T06:08:26.002Z,4.63
2023-03-29T06:09:25.991Z,4.69
2023-03-29T06:10:25.976Z,4.77
2023-03-29T06:11:26.000Z,4.78
2023-03-29T06:12:25.954Z,4.77
2023-03-29T06:13:25.942Z,4.84
2023-03-29T06:14:25.936Z,4.93
2023-03-29T06:15:25.923Z,4.99
2023-03-29T06:16:25.948Z,5.05
2023-03-29T06:17:25.918Z,5.00
2023-03-29T06:18:25.899Z,5.02
2023-03-29T06:19:25.894Z,5.06
2023-03-29T06:20:25.861Z,5.10
2023-03-29T06:21:25.850Z,5.08
2023-03-29T06:22:25.843Z,5.15
2023-03-29T06:23:25.869Z,5.13
2023-03-29T06:24:25.814Z,5.28
2023-03-29T06:25:25.804Z,5.43
2023-03-29T06:26:25.791Z,5.39
2023-03-29T06:27:25.779Z,5.28
2023-03-29T06:28:25.769Z,5.13
2023-03-29T06:29:25.768Z,5.14
2023-03-29T06:30:25.753Z,5.20
2023-03-29T06:31:25.765Z,5.28
2023-03-29T06:32:25.764Z,5.23
2023-03-29T06:33:25.725Z,5.24
2023-03-29T06:34:25.706Z,5.26
2023-03-29T06:35:25.701Z,5.33
2023-03-29T06:36:25.686Z,5.36
2023-03-29T06:37:25.671Z,5.33
2023-03-29T06:38:25.657Z,5.38
2023-03-29T06:39:25.677Z,5.39
2023-03-29T06:40:25.631Z,5.46
2023-03-29T06:41:25.623Z,5.40
2023-03-29T06:42:25.628Z,5.32
2023-03-29T06:43:25.601Z,5.32
2023-03-29T06:44:25.605Z,5.36
2023-03-29T06:45:27.410Z,5.40
2023-03-29T06:46:25.639Z,5.32
2023-03-29T06:47:25.801Z,5.35
2023-03-29T06:48:25.544Z,5.33
2023-03-29T06:49:25.539Z,5.43
2023-03-29T06:50:25.529Z,5.55
2023-03-29T06:51:25.584Z,5.54
2023-03-29T06:52:25.498Z,5.36
2023-03-29T06:53:25.501Z,5.35
2023-03-29T06:54:25.482Z,5.42
2023-03-29T06:55:25.488Z,5.43
2023-03-29T06:56:25.460Z,5.39
2023-03-29T06:57:25.577Z,5.39
2023-03-29T06:58:25.428Z,5.42
2023-03-29T06:59:25.454Z,5.49
2023-03-29T07:00:25.461Z,5.57
2023-03-29T07:01:25.439Z,5.55
2023-03-29T07:02:25.420Z,5.59
2023-03-29T07:03:25.372Z,5.57
2023-03-29T07:04:25.413Z,5.65
2023-03-29T07:05:25.349Z,5.77
2023-03-29T07:06:25.336Z,5.93
2023-03-29T07:07:25.335Z,6.02
2023-03-29T07:08:25.315Z,5.93
2023-03-29T07:09:25.307Z,6.02
2023-03-29T07:10:25.364Z,5.94
2023-03-29T07:11:25.304Z,5.90
2023-03-29T07:12:25.273Z,5.88
2023-03-29T07:13:25.261Z,5.69
2023-03-29T07:14:25.419Z,5.69
2023-03-29T07:15:25.246Z,5.84
2023-03-29T07:16:25.278Z,5.97
2023-03-29T07:17:25.257Z,6.06
2023-03-29T07:18:25.211Z,6.24
2023-03-29T07:19:25.202Z,6.41
2023-03-29T07:20:25.252Z,6.59
2023-03-29T07:21:25.174Z,6.78
2023-03-29T07:22:25.161Z,6.99
2023-03-29T07:23:25.151Z,7.07
2023-03-29T07:24:25.147Z,6.59
2023-03-29T07:25:25.138Z,6.33
2023-03-29T07:26:29.501Z,6.26
2023-03-29T07:27:25.155Z,6.02
2023-03-29T07:28:25.091Z,5.93
2023-03-29T07:29:25.082Z,6.08
2023-03-29T07:30:25.081Z,6.39
2023-03-29T07:31:25.058Z,6.81
2023-03-29T07:32:25.120Z,7.11
2023-03-29T07:33:25.241Z,7.11
2023-03-29T07:34:25.032Z,6.97
2023-03-29T07:35:25.028Z,6.78
2023-03-29T07:36:24.999Z,6.82
2023-03-29T07:37:25.006Z,6.81
2023-03-29T07:38:24.978Z,6.92
2023-03-29T07:39:24.966Z,6.70
2023-03-29T07:40:24.972Z,6.60
2023-03-29T07:41:24.952Z,6.54
2023-03-29T07:42:24.936Z,6.56
2023-03-29T07:43:24.953Z,6.73
2023-03-29T07:44:24.917Z,6.87
2023-03-29T07:45:26.601Z,6.99
2023-03-29T07:46:25.026Z,7.21
2023-03-29T07:47:24.894Z,7.37
2023-03-29T07:48:24.875Z,7.58
2023-03-29T07:49:24.860Z,7.86
2023-03-29T07:50:24.935Z,8.16
2023-03-29T07:51:24.832Z,8.30
2023-03-29T07:52:24.820Z,8.19
2023-03-29T07:53:24.818Z,7.90
2023-03-29T07:54:24.795Z,7.85
2023-03-29T07:55:24.785Z,7.98
2023-03-29T07:56:24.794Z,7.98
2023-03-29T07:57:24.787Z,8.23
2023-03-29T07:58:24.752Z,8.60
2023-03-29T07:59:24.772Z,8.65
2023-03-29T08:00:24.993Z,8.28
2023-03-29T08:01:24.843Z,8.09
2023-03-29T08:02:24.717Z,8.15
2023-03-29T08:03:24.787Z,8.00
2023-03-29T08:04:24.760Z,8.16
2023-03-29T08:06:24.660Z,8.88
2023-03-29T08:07:24.655Z,9.17
2023-03-29T08:08:24.633Z,9.01
2023-03-29T08:09:24.623Z,8.81
2023-03-29T08:10:24.614Z,8.71
2023-03-29T08:11:24.613Z,8.59
2023-03-29T08:12:25.084Z,8.63
2023-03-29T08:13:24.601Z,8.92
2023-03-29T08:14:24.584Z,9.15
2023-03-29T08:15:24.585Z,8.99
2023-03-29T08:16:24.555Z,8.77
2023-03-29T08:17:24.567Z,8.62
2023-03-29T08:18:24.553Z,8.78
2023-03-29T08:19:24.521Z,9.03
2023-03-29T08:20:24.499Z,9.32
2023-03-29T08:21:24.501Z,9.59
2023-03-29T08:22:24.478Z,9.68
2023-03-29T08:23:24.470Z,9.61
2023-03-29T08:24:24.458Z,9.65
2023-03-29T08:25:24.454Z,9.93
2023-03-29T08:26:24.445Z,10.24
2023-03-29T08:27:24.425Z,10.49
2023-03-29T08:28:24.411Z,10.84
2023-03-29T08:29:24.410Z,11.10
2023-03-29T08:30:24.395Z,10.78
2023-03-29T08:31:24.442Z,10.66
2023-03-29T08:32:24.425Z,10.64
2023-03-29T08:33:24.357Z,10.57
2023-03-29T08:34:24.348Z,10.69
2023-03-29T08:35:24.432Z,11.10
2023-03-29T08:36:24.324Z,11.74
2023-03-29T08:37:24.347Z,12.68
2023-03-29T08:38:24.323Z,13.19
2023-03-29T08:39:24.299Z,13.17
2023-03-29T08:40:24.292Z,13.04
2023-03-29T08:41:24.265Z,12.58
2023-03-29T08:42:24.266Z,13.08
2023-03-29T08:43:24.250Z,13.93
2023-03-29T08:44:24.232Z,14.71
2023-03-29T08:45:24.226Z,15.32
2023-03-29T08:46:24.253Z,15.72
2023-03-29T08:47:24.267Z,14.81
2023-03-29T08:48:24.198Z,13.34
2023-03-29T08:49:24.172Z,12.14
2023-03-29T08:50:24.169Z,11.76
2023-03-29T08:51:24.153Z,12.24
2023-03-29T08:52:24.142Z,12.81
2023-03-29T08:53:24.137Z,13.41
2023-03-29T08:54:24.116Z,13.53
2023-03-29T08:55:24.112Z,13.79
2023-03-29T08:56:24.092Z,13.77
2023-03-29T08:57:24.148Z,13.75
2023-03-29T08:58:24.071Z,14.36
2023-03-29T08:59:24.056Z,14.52
2023-03-29T09:00:24.049Z,14.33
2023-03-29T09:01:24.055Z,13.90
2023-03-29T09:02:24.177Z,13.20
2023-03-29T09:03:24.190Z,13.66
2023-03-29T09:04:24.026Z,13.20
2023-03-29T09:05:23.988Z,12.98
2023-03-29T09:06:23.981Z,13.01
2023-03-29T09:07:26.435Z,13.06
2023-03-29T09:08:23.961Z,13.37
2023-03-29T09:09:23.945Z,13.37
2023-03-29T09:10:23.940Z,13.62
2023-03-29T09:11:23.929Z,13.46
2023-03-29T09:12:23.912Z,13.26
2023-03-29T09:13:23.931Z,13.14
2023-03-29T09:14:23.892Z,13.13
2023-03-29T09:15:23.881Z,13.30
2023-03-29T09:16:23.931Z,13.48
2023-03-29T09:17:23.862Z,13.70
2023-03-29T09:18:23.859Z,13.20
2023-03-29T09:19:23.868Z,12.98
2023-03-29T09:20:23.832Z,12.79
2023-03-29T09:21:23.809Z,12.90
2023-03-29T09:22:23.806Z,13.17
2023-03-29T09:23:23.787Z,13.59
2023-03-29T09:24:23.779Z,14.18
2023-03-29T09:25:23.777Z,14.41
2023-03-29T09:26:23.757Z,14.53
2023-03-29T09:27:23.754Z,14.41
2023-03-29T09:28:23.729Z,14.13
2023-03-29T09:29:23.720Z,13.66
2023-03-29T09:30:23.711Z,14.21
2023-03-29T09:31:23.748Z,14.76
2023-03-29T09:32:23.694Z,14.59
2023-03-29T09:33:23.676Z,14.91
2023-03-29T09:34:23.668Z,15.09
2023-03-29T09:35:23.677Z,15.09
2023-03-29T09:36:23.643Z,14.88
2023-03-29T09:37:23.627Z,14.88
2023-03-29T09:38:23.618Z,14.77
2023-03-29T09:39:23.617Z,14.76
2023-03-29T09:40:23.607Z,14.61
2023-03-29T09:41:23.585Z,14.58
2023-03-29T09:42:23.570Z,14.73
2023-03-29T09:43:23.566Z,14.58
2023-03-29T09:44:30.813Z,14.34
2023-03-29T09:45:23.571Z,14.03
2023-03-29T09:46:23.531Z,14.03
2023-03-29T09:47:23.552Z,14.46
2023-03-29T09:48:23.514Z,14.76
2023-03-29T09:49:23.493Z,14.34
2023-03-29T09:50:31.026Z,14.22
2023-03-29T09:51:23.496Z,14.36
2023-03-29T09:52:23.459Z,14.33
2023-03-29T09:53:23.449Z,13.85
2023-03-29T09:54:23.434Z,13.50
2023-03-29T09:55:23.429Z,13.17
2023-03-29T09:56:23.418Z,12.93
2023-03-29T09:57:23.414Z,12.83
2023-03-29T09:58:23.391Z,13.17
2023-03-29T09:59:23.386Z,13.71
2023-03-29T10:00:23.388Z,13.74
2023-03-29T10:01:23.413Z,14.00
2023-03-29T10:02:23.359Z,14.22
2023-03-29T10:03:23.333Z,14.12
2023-03-29T10:04:23.344Z,13.82
2023-03-29T10:05:23.319Z,14.04
2023-03-29T10:06:23.301Z,14.55
2023-03-29T10:07:23.321Z,14.92
2023-03-29T10:08:23.290Z,15.50
2023-03-29T10:09:23.306Z,15.60
2023-03-29T10:10:23.256Z,15.62
2023-03-29T10:11:23.309Z,15.25
2023-03-29T10:12:23.265Z,15.34
2023-03-29T10:13:23.270Z,15.95
2023-03-29T10:14:23.216Z,15.43
2023-03-29T10:15:29.719Z,14.28
2023-03-29T10:16:23.225Z,13.60
2023-03-29T10:17:23.443Z,13.53
2023-03-29T10:18:23.168Z,13.14
2023-03-29T10:19:23.160Z,13.63
2023-03-29T10:20:23.145Z,13.82
2023-03-29T10:21:23.131Z,13.54
2023-03-29T10:22:23.155Z,13.81
2023-03-29T10:23:23.147Z,14.26
2023-03-29T10:24:23.101Z,14.22
2023-03-29T10:25:23.103Z,14.34
2023-03-29T10:26:23.079Z,14.82
2023-03-29T10:27:23.079Z,15.00
2023-03-29T10:28:23.054Z,15.56
2023-03-29T10:29:23.044Z,15.84
2023-03-29T10:30:23.042Z,16.02
2023-03-29T10:31:23.139Z,16.24
2023-03-29T10:32:23.217Z,16.64
2023-03-29T10:33:23.002Z,16.48
2023-03-29T10:34:22.989Z,16.50
2023-03-29T10:35:22.984Z,16.56
2023-03-29T10:36:22.974Z,17.07
2023-03-29T10:37:22.963Z,17.82
2023-03-29T10:38:22.973Z,16.82
2023-03-29T10:39:22.959Z,16.02
2023-03-29T10:40:22.923Z,16.00
2023-03-29T10:41:22.912Z,15.56
2023-03-29T10:42:22.896Z,15.21
2023-03-29T10:43:22.888Z,14.95
2023-03-29T10:44:22.878Z,14.73
2023-03-29T10:45:22.863Z,14.56
2023-03-29T10:46:22.915Z,14.45
2023-03-29T10:47:22.851Z,14.22
2023-03-29T10:48:22.830Z,13.99
2023-03-29T10:49:22.821Z,13.93
2023-03-29T10:50:22.813Z,13.72
2023-03-29T10:51:22.797Z,13.67
2023-03-29T10:52:22.785Z,13.67
2023-03-29T10:53:22.777Z,13.64
2023-03-29T10:54:22.767Z,13.62
2023-03-29T10:55:22.778Z,13.64
2023-03-29T10:56:22.736Z,13.63
2023-03-29T10:57:22.968Z,13.59
2023-03-29T10:58:22.720Z,13.62
2023-03-29T10:59:22.717Z,13.71
2023-03-29T11:00:22.698Z,14.00
2023-03-29T11:01:22.747Z,14.44
2023-03-29T11:02:22.753Z,14.40
2023-03-29T11:03:22.809Z,14.21
2023-03-29T11:04:22.664Z,14.30
2023-03-29T11:05:22.647Z,14.38
2023-03-29T11:06:22.630Z,15.04
2023-03-29T11:07:22.617Z,14.78
2023-03-29T11:08:22.608Z,14.44
2023-03-29T11:09:22.590Z,14.22
2023-03-29T11:10:22.579Z,14.36
2023-03-29T11:11:22.601Z,14.36
2023-03-29T11:12:22.560Z,14.63
2023-03-29T11:13:22.560Z,14.44
2023-03-29T11:14:22.537Z,14.09
2023-03-29T11:15:22.534Z,13.72
2023-03-29T11:16:22.677Z,13.54
2023-03-29T11:17:22.546Z,13.44
2023-03-29T11:18:22.489Z,13.37
2023-03-29T11:19:22.484Z,13.52
2023-03-29T11:20:22.496Z,13.64
2023-03-29T11:21:22.458Z,13.81
2023-03-29T11:22:22.446Z,14.26
2023-03-29T11:23:22.432Z,14.41
2023-03-29T11:24:22.425Z,14.45
2023-03-29T11:25:22.413Z,14.40
2023-03-29T11:26:22.400Z,14.16
2023-03-29T11:27:28.428Z,13.89
2023-03-29T11:28:22.370Z,13.72
2023-03-29T11:29:22.369Z,13.92
2023-03-29T11:30:22.359Z,13.97
2023-03-29T11:31:22.367Z,13.81
2023-03-29T11:32:22.343Z,13.90
2023-03-29T11:33:22.338Z,14.04
2023-03-29T11:34:22.311Z,13.41
2023-03-29T11:35:22.304Z,13.06
2023-03-29T11:36:22.290Z,13.32
2023-03-29T11:37:22.270Z,13.50
2023-03-29T11:38:22.256Z,13.63
2023-03-29T11:39:22.248Z,13.93
2023-03-29T11:40:22.241Z,14.34
2023-03-29T11:41:22.232Z,15.03
2023-03-29T11:42:22.220Z,15.37
2023-03-29T11:43:22.231Z,15.72
2023-03-29T11:44:22.194Z,15.26
2023-03-29T11:45:22.181Z,15.22
2023-03-29T11:46:22.233Z,15.06
2023-03-29T11:47:22.156Z,14.84
2023-03-29T11:48:22.154Z,14.52
2023-03-29T11:49:22.145Z,14.41
2023-03-29T11:50:22.123Z,14.33
2023-03-29T11:51:22.120Z,14.64
2023-03-29T11:52:22.101Z,14.96
2023-03-29T11:53:22.101Z,14.96
2023-03-29T11:54:22.086Z,14.86
2023-03-29T11:55:22.068Z,15.21
2023-03-29T11:56:22.062Z,15.31
2023-03-29T11:57:22.121Z,15.00
2023-03-29T11:58:22.034Z,15.03
2023-03-29T11:59:22.055Z,15.39
2023-03-29T12:00:22.040Z,15.32
2023-03-29T12:01:22.008Z,15.24
2023-03-29T12:02:22.032Z,14.98
2023-03-29T12:03:22.196Z,14.88
2023-03-29T12:04:22.101Z,15.02
2023-03-29T12:05:21.959Z,15.06
2023-03-29T12:06:21.948Z,15.18
2023-03-29T12:07:21.933Z,15.16
2023-03-29T12:08:21.931Z,15.34
2023-03-29T12:09:21.910Z,15.59
2023-03-29T12:10:21.900Z,15.51
2023-03-29T12:11:21.889Z,15.21
2023-03-29T12:12:21.885Z,14.73
2023-03-29T12:13:21.866Z,14.71
2023-03-29T12:14:21.858Z,14.66
2023-03-29T12:15:21.910Z,14.31
2023-03-29T12:16:21.884Z,13.87
2023-03-29T12:17:21.895Z,13.79
2023-03-29T12:18:21.818Z,13.63
2023-03-29T12:19:21.805Z,13.38
2023-03-29T12:20:21.797Z,13.50
2023-03-29T12:21:21.776Z,13.26
2023-03-29T12:22:21.766Z,13.11
2023-03-29T12:23:21.753Z,13.04
2023-03-29T12:24:21.756Z,13.14
2023-03-29T12:25:23.383Z,13.35
2023-03-29T12:26:21.738Z,13.57
2023-03-29T12:27:21.708Z,13.81
2023-03-29T12:28:21.704Z,13.97
2023-03-29T12:29:21.686Z,14.12
2023-03-29T12:30:21.683Z,14.31
2023-03-29T12:31:21.715Z,14.63
2023-03-29T12:32:21.715Z,14.81
2023-03-29T12:33:21.650Z,14.67
2023-03-29T12:34:21.632Z,14.44
2023-03-29T12:35:21.624Z,14.31
2023-03-29T12:36:21.616Z,14.13
2023-03-29T12:37:21.598Z,14.21
2023-03-29T12:38:21.591Z,14.44
2023-03-29T12:39:21.598Z,14.74
2023-03-29T12:40:21.594Z,14.91
2023-03-29T12:41:21.551Z,15.02
2023-03-29T12:42:21.549Z,15.18
2023-03-29T12:43:21.542Z,15.00
2023-03-29T12:44:21.519Z,14.74
2023-03-29T12:45:21.527Z,14.82
2023-03-29T12:46:21.517Z,14.95
2023-03-29T12:47:21.520Z,15.06
2023-03-29T12:48:21.491Z,15.24
2023-03-29T12:49:21.467Z,15.50
2023-03-29T12:50:21.454Z,15.73
2023-03-29T12:51:21.438Z,15.70
2023-03-29T12:52:21.429Z,15.32
2023-03-29T12:53:21.417Z,14.81
2023-03-29T12:54:21.429Z,14.30
2023-03-29T12:55:21.408Z,13.97
2023-03-29T12:56:21.393Z,13.78
2023-03-29T12:57:21.498Z,13.72
2023-03-29T12:58:21.359Z,13.62
2023-03-29T12:59:21.355Z,13.59
2023-03-29T13:00:21.347Z,13.63
2023-03-29T13:01:21.419Z,13.41
2023-03-29T13:02:21.347Z,12.96
2023-03-29T13:03:21.351Z,12.73
2023-03-29T13:04:21.291Z,12.72
2023-03-29T13:05:21.304Z,12.71
2023-03-29T13:06:21.267Z,12.72
2023-03-29T13:07:21.271Z,12.65
2023-03-29T13:08:21.248Z,12.61
2023-03-29T13:09:21.233Z,12.61